sensor_id;sensor_type;location;lat;lon;timestamp;P1;durP1;ratioP1;P2;durP2;ratioP2
25449;SDS011;13371;52.080;5.624;2024-01-30T00:01:50;15.10;;;8.02;;
25449;SDS011;13371;52.080;5.624;2024-01-30T00:04:16;14.23;;;7.57;;
25449;SDS011;13371;52.080;5.624;2024-01-30T00:06:42;15.27;;;7.25;;
25449;SDS011;13371;52.080;5.624;2024-01-30T00:09:08;13.23;;;7.32;;
25449;SDS011;13371;52.080;5.624;2024-01-30T00:11:35;16.77;;;7.88;;
25449;SDS011;13371;52.080;5.624;2024-01-30T00:14:01;12.77;;;7.22;;
25449;SDS011;13371;52.080;5.624;2024-01-30T00:16:26;13.85;;;7.85;;
25449;SDS011;13371;52.080;5.624;2024-01-30T00:18:53;14.43;;;7.75;;
25449;SDS011;13371;52.080;5.624;2024-01-30T00:21:19;14.57;;;7.55;;
25449;SDS011;13371;52.080;5.624;2024-01-30T00:23:45;13.05;;;7.53;;
25449;SDS011;13371;52.080;5.624;2024-01-30T00:26:10;13.63;;;7.95;;
25449;SDS011;13371;52.080;5.624;2024-01-30T00:28:36;14.30;;;7.97;;
25449;SDS011;13371;52.080;5.624;2024-01-30T00:31:08;12.52;;;7.75;;
25449;SDS011;13371;52.080;5.624;2024-01-30T00:33:37;13.60;;;7.93;;
25449;SDS011;13371;52.080;5.624;2024-01-30T00:36:04;13.32;;;7.30;;
25449;SDS011;13371;52.080;5.624;2024-01-30T00:38:30;12.85;;;7.28;;
25449;SDS011;13371;52.080;5.624;2024-01-30T00:40:56;11.82;;;6.97;;
25449;SDS011;13371;52.080;5.624;2024-01-30T00:43:21;12.23;;;7.03;;
25449;SDS011;13371;52.080;5.624;2024-01-30T00:45:47;15.43;;;7.07;;
25449;SDS011;13371;52.080;5.624;2024-01-30T00:48:12;19.55;;;7.80;;
25449;SDS011;13371;52.080;5.624;2024-01-30T00:50:39;13.55;;;7.55;;
25449;SDS011;13371;52.080;5.624;2024-01-30T00:53:04;14.32;;;7.80;;
25449;SDS011;13371;52.080;5.624;2024-01-30T00:55:30;16.13;;;7.78;;
25449;SDS011;13371;52.080;5.624;2024-01-30T00:57:55;14.23;;;7.18;;
25449;SDS011;13371;52.080;5.624;2024-01-30T01:00:21;15.02;;;7.30;;
25449;SDS011;13371;52.080;5.624;2024-01-30T01:02:48;13.65;;;6.93;;
25449;SDS011;13371;52.080;5.624;2024-01-30T01:05:13;13.18;;;6.95;;
25449;SDS011;13371;52.080;5.624;2024-01-30T01:07:39;13.13;;;6.22;;
25449;SDS011;13371;52.080;5.624;2024-01-30T01:10:05;14.02;;;7.55;;
25449;SDS011;13371;52.080;5.624;2024-01-30T01:12:31;13.38;;;7.57;;
25449;SDS011;13371;52.080;5.624;2024-01-30T01:14:56;17.30;;;7.05;;
25449;SDS011;13371;52.080;5.624;2024-01-30T01:17:22;10.15;;;6.70;;
25449;SDS011;13371;52.080;5.624;2024-01-30T01:19:48;14.07;;;6.90;;
25449;SDS011;13371;52.080;5.624;2024-01-30T01:22:13;11.73;;;6.75;;
25449;SDS011;13371;52.080;5.624;2024-01-30T01:24:41;14.30;;;7.25;;
25449;SDS011;13371;52.080;5.624;2024-01-30T01:27:06;14.20;;;7.53;;
25449;SDS011;13371;52.080;5.624;2024-01-30T01:29:32;13.52;;;6.85;;
25449;SDS011;13371;52.080;5.624;2024-01-30T01:31:58;11.30;;;7.10;;
25449;SDS011;13371;52.080;5.624;2024-01-30T01:34:24;12.55;;;6.70;;
25449;SDS011;13371;52.080;5.624;2024-01-30T01:36:50;12.63;;;6.10;;
25449;SDS011;13371;52.080;5.624;2024-01-30T01:39:16;12.85;;;6.40;;
25449;SDS011;13371;52.080;5.624;2024-01-30T01:41:42;13.02;;;6.35;;
25449;SDS011;13371;52.080;5.624;2024-01-30T01:44:08;12.60;;;6.20;;
25449;SDS011;13371;52.080;5.624;2024-01-30T01:46:34;14.25;;;6.75;;
25449;SDS011;13371;52.080;5.624;2024-01-30T01:49:00;12.98;;;7.05;;
25449;SDS011;13371;52.080;5.624;2024-01-30T01:51:30;12.63;;;6.50;;
25449;SDS011;13371;52.080;5.624;2024-01-30T01:53:58;10.85;;;5.88;;
25449;SDS011;13371;52.080;5.624;2024-01-30T01:56:27;11.40;;;5.57;;
25449;SDS011;13371;52.080;5.624;2024-01-30T01:58:54;10.60;;;6.05;;
25449;SDS011;13371;52.080;5.624;2024-01-30T02:01:22;10.98;;;5.97;;
25449;SDS011;13371;52.080;5.624;2024-01-30T02:03:50;9.48;;;5.70;;
25449;SDS011;13371;52.080;5.624;2024-01-30T02:06:16;13.60;;;6.32;;
25449;SDS011;13371;52.080;5.624;2024-01-30T02:08:42;12.10;;;6.70;;
25449;SDS011;13371;52.080;5.624;2024-01-30T02:11:08;13.25;;;6.32;;
25449;SDS011;13371;52.080;5.624;2024-01-30T02:13:35;12.15;;;5.90;;
25449;SDS011;13371;52.080;5.624;2024-01-30T02:16:00;10.68;;;6.40;;
25449;SDS011;13371;52.080;5.624;2024-01-30T02:18:26;12.55;;;6.53;;
25449;SDS011;13371;52.080;5.624;2024-01-30T02:20:55;12.02;;;7.05;;
25449;SDS011;13371;52.080;5.624;2024-01-30T02:23:24;11.52;;;6.50;;
25449;SDS011;13371;52.080;5.624;2024-01-30T02:25:52;12.43;;;6.90;;
25449;SDS011;13371;52.080;5.624;2024-01-30T02:28:18;10.50;;;6.57;;
25449;SDS011;13371;52.080;5.624;2024-01-30T02:30:45;11.90;;;6.15;;
25449;SDS011;13371;52.080;5.624;2024-01-30T02:33:11;12.77;;;7.10;;
25449;SDS011;13371;52.080;5.624;2024-01-30T02:35:37;12.88;;;7.00;;
25449;SDS011;13371;52.080;5.624;2024-01-30T02:38:03;12.95;;;6.68;;
25449;SDS011;13371;52.080;5.624;2024-01-30T02:40:28;17.77;;;6.22;;
25449;SDS011;13371;52.080;5.624;2024-01-30T02:42:54;11.73;;;6.50;;
25449;SDS011;13371;52.080;5.624;2024-01-30T02:45:20;9.73;;;5.97;;
25449;SDS011;13371;52.080;5.624;2024-01-30T02:47:45;12.20;;;6.07;;
25449;SDS011;13371;52.080;5.624;2024-01-30T02:50:11;12.60;;;6.72;;
25449;SDS011;13371;52.080;5.624;2024-01-30T02:52:37;12.32;;;6.75;;
25449;SDS011;13371;52.080;5.624;2024-01-30T02:55:02;15.70;;;6.18;;
25449;SDS011;13371;52.080;5.624;2024-01-30T02:57:28;13.80;;;6.57;;
25449;SDS011;13371;52.080;5.624;2024-01-30T02:59:54;12.45;;;6.13;;
25449;SDS011;13371;52.080;5.624;2024-01-30T03:02:20;11.70;;;6.43;;
25449;SDS011;13371;52.080;5.624;2024-01-30T03:04:45;14.18;;;6.68;;
25449;SDS011;13371;52.080;5.624;2024-01-30T03:07:12;14.65;;;7.00;;
25449;SDS011;13371;52.080;5.624;2024-01-30T03:09:37;13.57;;;7.10;;
25449;SDS011;13371;52.080;5.624;2024-01-30T03:12:03;11.68;;;6.50;;
25449;SDS011;13371;52.080;5.624;2024-01-30T03:14:32;13.52;;;7.20;;
25449;SDS011;13371;52.080;5.624;2024-01-30T03:16:58;12.43;;;6.47;;
25449;SDS011;13371;52.080;5.624;2024-01-30T03:19:24;11.95;;;6.85;;
25449;SDS011;13371;52.080;5.624;2024-01-30T03:21:49;10.65;;;6.65;;
25449;SDS011;13371;52.080;5.624;2024-01-30T03:24:16;13.02;;;6.78;;
25449;SDS011;13371;52.080;5.624;2024-01-30T03:26:42;13.50;;;6.70;;
25449;SDS011;13371;52.080;5.624;2024-01-30T03:29:08;13.50;;;6.70;;
25449;SDS011;13371;52.080;5.624;2024-01-30T03:31:33;12.98;;;6.35;;
25449;SDS011;13371;52.080;5.624;2024-01-30T03:33:59;14.30;;;6.57;;
25449;SDS011;13371;52.080;5.624;2024-01-30T03:36:25;10.63;;;5.88;;
25449;SDS011;13371;52.080;5.624;2024-01-30T03:38:51;13.38;;;6.82;;
25449;SDS011;13371;52.080;5.624;2024-01-30T03:41:16;13.85;;;6.53;;
25449;SDS011;13371;52.080;5.624;2024-01-30T03:43:42;11.57;;;6.15;;
25449;SDS011;13371;52.080;5.624;2024-01-30T03:46:07;13.63;;;6.47;;
25449;SDS011;13371;52.080;5.624;2024-01-30T03:48:33;11.65;;;6.07;;
25449;SDS011;13371;52.080;5.624;2024-01-30T03:50:59;11.73;;;6.68;;
25449;SDS011;13371;52.080;5.624;2024-01-30T03:53:24;11.52;;;6.63;;
25449;SDS011;13371;52.080;5.624;2024-01-30T03:55:50;12.23;;;6.65;;
25449;SDS011;13371;52.080;5.624;2024-01-30T03:58:16;10.48;;;6.13;;
25449;SDS011;13371;52.080;5.624;2024-01-30T04:00:41;10.30;;;6.00;;
25449;SDS011;13371;52.080;5.624;2024-01-30T04:03:07;12.48;;;6.07;;
25449;SDS011;13371;52.080;5.624;2024-01-30T04:05:33;15.48;;;7.05;;
25449;SDS011;13371;52.080;5.624;2024-01-30T04:07:58;12.52;;;6.45;;
25449;SDS011;13371;52.080;5.624;2024-01-30T04:10:24;11.18;;;5.55;;
25449;SDS011;13371;52.080;5.624;2024-01-30T04:12:50;15.38;;;6.68;;
25449;SDS011;13371;52.080;5.624;2024-01-30T04:15:16;14.50;;;6.85;;
25449;SDS011;13371;52.080;5.624;2024-01-30T04:17:42;11.18;;;6.57;;
25449;SDS011;13371;52.080;5.624;2024-01-30T04:20:13;11.95;;;5.97;;
25449;SDS011;13371;52.080;5.624;2024-01-30T04:22:39;11.02;;;6.47;;
25449;SDS011;13371;52.080;5.624;2024-01-30T04:25:05;17.48;;;6.78;;
25449;SDS011;13371;52.080;5.624;2024-01-30T04:27:30;11.88;;;6.22;;
25449;SDS011;13371;52.080;5.624;2024-01-30T04:29:56;10.60;;;6.50;;
25449;SDS011;13371;52.080;5.624;2024-01-30T04:32:22;11.27;;;6.32;;
25449;SDS011;13371;52.080;5.624;2024-01-30T04:34:47;9.57;;;5.78;;
25449;SDS011;13371;52.080;5.624;2024-01-30T04:37:13;10.20;;;6.25;;
25449;SDS011;13371;52.080;5.624;2024-01-30T04:39:38;11.80;;;5.75;;
25449;SDS011;13371;52.080;5.624;2024-01-30T04:42:04;10.55;;;7.05;;
25449;SDS011;13371;52.080;5.624;2024-01-30T04:44:30;11.90;;;6.70;;
25449;SDS011;13371;52.080;5.624;2024-01-30T04:46:55;12.00;;;6.15;;
25449;SDS011;13371;52.080;5.624;2024-01-30T04:49:24;12.07;;;6.43;;
25449;SDS011;13371;52.080;5.624;2024-01-30T04:51:49;11.65;;;6.35;;
25449;SDS011;13371;52.080;5.624;2024-01-30T04:54:15;10.75;;;6.50;;
25449;SDS011;13371;52.080;5.624;2024-01-30T04:56:40;11.85;;;6.20;;
25449;SDS011;13371;52.080;5.624;2024-01-30T04:59:06;13.25;;;6.25;;
25449;SDS011;13371;52.080;5.624;2024-01-30T05:01:33;12.93;;;7.28;;
25449;SDS011;13371;52.080;5.624;2024-01-30T05:03:59;14.77;;;6.15;;
25449;SDS011;13371;52.080;5.624;2024-01-30T05:06:28;11.25;;;5.95;;
25449;SDS011;13371;52.080;5.624;2024-01-30T05:08:53;9.43;;;5.78;;
25449;SDS011;13371;52.080;5.624;2024-01-30T05:11:19;9.90;;;6.60;;
25449;SDS011;13371;52.080;5.624;2024-01-30T05:13:44;10.60;;;6.70;;
25449;SDS011;13371;52.080;5.624;2024-01-30T05:16:10;10.27;;;5.88;;
25449;SDS011;13371;52.080;5.624;2024-01-30T05:18:36;12.25;;;6.53;;
25449;SDS011;13371;52.080;5.624;2024-01-30T05:21:05;10.90;;;6.30;;
25449;SDS011;13371;52.080;5.624;2024-01-30T05:23:30;11.75;;;6.32;;
25449;SDS011;13371;52.080;5.624;2024-01-30T05:25:56;10.82;;;6.30;;
25449;SDS011;13371;52.080;5.624;2024-01-30T05:28:26;11.68;;;5.80;;
25449;SDS011;13371;52.080;5.624;2024-01-30T05:30:51;14.68;;;6.68;;
25449;SDS011;13371;52.080;5.624;2024-01-30T05:33:17;14.30;;;6.45;;
25449;SDS011;13371;52.080;5.624;2024-01-30T05:35:43;11.73;;;6.75;;
25449;SDS011;13371;52.080;5.624;2024-01-30T05:38:08;10.88;;;6.22;;
25449;SDS011;13371;52.080;5.624;2024-01-30T05:40:34;9.60;;;6.07;;
25449;SDS011;13371;52.080;5.624;2024-01-30T05:42:59;11.15;;;5.88;;
25449;SDS011;13371;52.080;5.624;2024-01-30T05:45:26;13.73;;;5.75;;
25449;SDS011;13371;52.080;5.624;2024-01-30T05:47:52;8.85;;;5.53;;
25449;SDS011;13371;52.080;5.624;2024-01-30T05:50:18;10.77;;;6.45;;
25449;SDS011;13371;52.080;5.624;2024-01-30T05:52:44;11.55;;;5.97;;
25449;SDS011;13371;52.080;5.624;2024-01-30T05:55:11;10.63;;;6.32;;
25449;SDS011;13371;52.080;5.624;2024-01-30T05:57:37;12.55;;;6.35;;
25449;SDS011;13371;52.080;5.624;2024-01-30T06:00:03;11.85;;;5.90;;
25449;SDS011;13371;52.080;5.624;2024-01-30T06:02:30;11.93;;;6.30;;
25449;SDS011;13371;52.080;5.624;2024-01-30T06:04:56;10.73;;;6.28;;
25449;SDS011;13371;52.080;5.624;2024-01-30T06:07:21;10.75;;;6.50;;
25449;SDS011;13371;52.080;5.624;2024-01-30T06:09:47;10.50;;;6.00;;
25449;SDS011;13371;52.080;5.624;2024-01-30T06:12:13;11.68;;;6.50;;
25449;SDS011;13371;52.080;5.624;2024-01-30T06:14:38;8.88;;;5.95;;
25449;SDS011;13371;52.080;5.624;2024-01-30T06:17:04;12.55;;;6.10;;
25449;SDS011;13371;52.080;5.624;2024-01-30T06:19:30;11.45;;;5.65;;
25449;SDS011;13371;52.080;5.624;2024-01-30T06:21:55;10.40;;;5.80;;
25449;SDS011;13371;52.080;5.624;2024-01-30T06:24:22;10.23;;;5.85;;
25449;SDS011;13371;52.080;5.624;2024-01-30T06:26:47;13.50;;;6.05;;
25449;SDS011;13371;52.080;5.624;2024-01-30T06:29:13;9.52;;;6.10;;
25449;SDS011;13371;52.080;5.624;2024-01-30T06:31:40;10.05;;;5.55;;
25449;SDS011;13371;52.080;5.624;2024-01-30T06:34:09;15.90;;;6.10;;
25449;SDS011;13371;52.080;5.624;2024-01-30T06:36:36;12.10;;;5.90;;
25449;SDS011;13371;52.080;5.624;2024-01-30T06:39:02;14.30;;;6.03;;
25449;SDS011;13371;52.080;5.624;2024-01-30T06:41:28;9.20;;;5.88;;
25449;SDS011;13371;52.080;5.624;2024-01-30T06:43:54;12.40;;;5.75;;
25449;SDS011;13371;52.080;5.624;2024-01-30T06:46:20;11.10;;;5.50;;
25449;SDS011;13371;52.080;5.624;2024-01-30T06:48:45;10.43;;;6.53;;
25449;SDS011;13371;52.080;5.624;2024-01-30T06:51:11;9.05;;;5.53;;
25449;SDS011;13371;52.080;5.624;2024-01-30T06:53:37;13.43;;;6.93;;
25449;SDS011;13371;52.080;5.624;2024-01-30T06:56:03;9.18;;;5.88;;
25449;SDS011;13371;52.080;5.624;2024-01-30T06:58:29;12.80;;;6.03;;
25449;SDS011;13371;52.080;5.624;2024-01-30T07:00:54;15.35;;;6.05;;
25449;SDS011;13371;52.080;5.624;2024-01-30T07:03:20;13.20;;;6.03;;
25449;SDS011;13371;52.080;5.624;2024-01-30T07:05:46;11.48;;;5.82;;
25449;SDS011;13371;52.080;5.624;2024-01-30T07:08:12;11.98;;;5.45;;
25449;SDS011;13371;52.080;5.624;2024-01-30T07:10:37;11.02;;;6.03;;
25449;SDS011;13371;52.080;5.624;2024-01-30T07:13:03;11.02;;;5.78;;
25449;SDS011;13371;52.080;5.624;2024-01-30T07:15:30;11.30;;;5.97;;
25449;SDS011;13371;52.080;5.624;2024-01-30T07:17:56;10.00;;;5.72;;
25449;SDS011;13371;52.080;5.624;2024-01-30T07:20:21;10.38;;;5.57;;
25449;SDS011;13371;52.080;5.624;2024-01-30T07:22:47;9.60;;;6.05;;
25449;SDS011;13371;52.080;5.624;2024-01-30T07:25:13;12.50;;;5.45;;
25449;SDS011;13371;52.080;5.624;2024-01-30T07:27:38;11.02;;;5.82;;
25449;SDS011;13371;52.080;5.624;2024-01-30T07:30:04;11.88;;;5.63;;
25449;SDS011;13371;52.080;5.624;2024-01-30T07:32:30;12.05;;;5.25;;
25449;SDS011;13371;52.080;5.624;2024-01-30T07:34:56;11.23;;;5.93;;
25449;SDS011;13371;52.080;5.624;2024-01-30T07:37:22;13.07;;;5.85;;
25449;SDS011;13371;52.080;5.624;2024-01-30T07:39:47;11.57;;;6.13;;
25449;SDS011;13371;52.080;5.624;2024-01-30T07:42:13;14.52;;;6.05;;
25449;SDS011;13371;52.080;5.624;2024-01-30T07:44:39;12.10;;;5.32;;
25449;SDS011;13371;52.080;5.624;2024-01-30T07:47:04;10.55;;;5.50;;
25449;SDS011;13371;52.080;5.624;2024-01-30T07:49:30;11.40;;;5.65;;
25449;SDS011;13371;52.080;5.624;2024-01-30T07:51:57;7.70;;;5.00;;
25449;SDS011;13371;52.080;5.624;2024-01-30T07:54:22;10.52;;;5.50;;
25449;SDS011;13371;52.080;5.624;2024-01-30T07:56:49;9.82;;;5.65;;
25449;SDS011;13371;52.080;5.624;2024-01-30T07:59:14;10.35;;;5.03;;
25449;SDS011;13371;52.080;5.624;2024-01-30T08:01:40;8.88;;;5.07;;
25449;SDS011;13371;52.080;5.624;2024-01-30T08:04:06;11.70;;;5.30;;
25449;SDS011;13371;52.080;5.624;2024-01-30T08:06:32;12.68;;;5.57;;
25449;SDS011;13371;52.080;5.624;2024-01-30T08:08:58;12.18;;;5.75;;
25449;SDS011;13371;52.080;5.624;2024-01-30T08:11:24;11.82;;;5.50;;
25449;SDS011;13371;52.080;5.624;2024-01-30T08:13:52;13.75;;;6.30;;
25449;SDS011;13371;52.080;5.624;2024-01-30T08:16:18;8.93;;;5.13;;
25449;SDS011;13371;52.080;5.624;2024-01-30T08:18:43;13.68;;;5.90;;
25449;SDS011;13371;52.080;5.624;2024-01-30T08:21:09;9.75;;;5.65;;
25449;SDS011;13371;52.080;5.624;2024-01-30T08:23:34;9.65;;;5.40;;
25449;SDS011;13371;52.080;5.624;2024-01-30T08:26:00;10.23;;;5.40;;
25449;SDS011;13371;52.080;5.624;2024-01-30T08:28:26;11.48;;;5.10;;
25449;SDS011;13371;52.080;5.624;2024-01-30T08:30:51;12.15;;;5.78;;
25449;SDS011;13371;52.080;5.624;2024-01-30T08:33:17;10.32;;;5.28;;
25449;SDS011;13371;52.080;5.624;2024-01-30T08:35:43;12.48;;;5.97;;
25449;SDS011;13371;52.080;5.624;2024-01-30T08:38:09;9.38;;;5.50;;
25449;SDS011;13371;52.080;5.624;2024-01-30T08:40:35;14.60;;;5.32;;
25449;SDS011;13371;52.080;5.624;2024-01-30T08:43:00;11.10;;;5.70;;
25449;SDS011;13371;52.080;5.624;2024-01-30T08:45:26;20.63;;;5.78;;
25449;SDS011;13371;52.080;5.624;2024-01-30T08:47:52;8.98;;;5.28;;
25449;SDS011;13371;52.080;5.624;2024-01-30T08:50:17;15.65;;;6.10;;
25449;SDS011;13371;52.080;5.624;2024-01-30T08:52:43;11.30;;;5.13;;
25449;SDS011;13371;52.080;5.624;2024-01-30T08:55:08;9.02;;;5.25;;
25449;SDS011;13371;52.080;5.624;2024-01-30T08:57:34;9.15;;;5.50;;
25449;SDS011;13371;52.080;5.624;2024-01-30T08:59:59;9.43;;;5.18;;
25449;SDS011;13371;52.080;5.624;2024-01-30T09:02:28;11.95;;;5.57;;
25449;SDS011;13371;52.080;5.624;2024-01-30T09:04:54;10.75;;;5.93;;
25449;SDS011;13371;52.080;5.624;2024-01-30T09:07:19;11.20;;;5.60;;
25449;SDS011;13371;52.080;5.624;2024-01-30T09:09:45;10.35;;;5.75;;
25449;SDS011;13371;52.080;5.624;2024-01-30T09:12:10;10.40;;;5.45;;
25449;SDS011;13371;52.080;5.624;2024-01-30T09:14:37;10.55;;;6.00;;
25449;SDS011;13371;52.080;5.624;2024-01-30T09:17:03;16.48;;;6.20;;
25449;SDS011;13371;52.080;5.624;2024-01-30T09:19:28;13.73;;;5.88;;
25449;SDS011;13371;52.080;5.624;2024-01-30T09:21:54;14.27;;;6.28;;
25449;SDS011;13371;52.080;5.624;2024-01-30T09:24:20;14.00;;;6.03;;
25449;SDS011;13371;52.080;5.624;2024-01-30T09:26:46;13.40;;;6.20;;
25449;SDS011;13371;52.080;5.624;2024-01-30T09:29:11;13.95;;;6.10;;
25449;SDS011;13371;52.080;5.624;2024-01-30T09:31:37;8.00;;;5.50;;
25449;SDS011;13371;52.080;5.624;2024-01-30T09:34:02;11.02;;;6.38;;
25449;SDS011;13371;52.080;5.624;2024-01-30T09:36:28;13.10;;;7.18;;
25449;SDS011;13371;52.080;5.624;2024-01-30T09:38:53;14.95;;;6.32;;
25449;SDS011;13371;52.080;5.624;2024-01-30T09:41:19;11.75;;;5.82;;
25449;SDS011;13371;52.080;5.624;2024-01-30T09:43:48;10.93;;;5.57;;
25449;SDS011;13371;52.080;5.624;2024-01-30T09:46:16;12.10;;;5.90;;
25449;SDS011;13371;52.080;5.624;2024-01-30T09:48:43;12.38;;;6.45;;
25449;SDS011;13371;52.080;5.624;2024-01-30T09:51:11;14.40;;;7.07;;
25449;SDS011;13371;52.080;5.624;2024-01-30T09:53:40;13.63;;;5.90;;
25449;SDS011;13371;52.080;5.624;2024-01-30T09:56:07;12.55;;;6.93;;
25449;SDS011;13371;52.080;5.624;2024-01-30T09:58:32;14.77;;;7.05;;
25449;SDS011;13371;52.080;5.624;2024-01-30T10:00:58;10.93;;;5.75;;
25449;SDS011;13371;52.080;5.624;2024-01-30T10:03:24;12.60;;;6.65;;
25449;SDS011;13371;52.080;5.624;2024-01-30T10:05:50;14.85;;;7.38;;
25449;SDS011;13371;52.080;5.624;2024-01-30T10:08:17;11.50;;;6.75;;
25449;SDS011;13371;52.080;5.624;2024-01-30T10:10:46;12.15;;;6.13;;
25449;SDS011;13371;52.080;5.624;2024-01-30T10:13:12;14.52;;;6.57;;
25449;SDS011;13371;52.080;5.624;2024-01-30T10:15:38;14.38;;;6.53;;
25449;SDS011;13371;52.080;5.624;2024-01-30T10:18:05;11.65;;;6.43;;
25449;SDS011;13371;52.080;5.624;2024-01-30T10:20:31;14.25;;;6.80;;
25449;SDS011;13371;52.080;5.624;2024-01-30T10:22:57;10.80;;;5.97;;
25449;SDS011;13371;52.080;5.624;2024-01-30T10:25:23;17.60;;;7.43;;
25449;SDS011;13371;52.080;5.624;2024-01-30T10:27:53;11.75;;;6.13;;
25449;SDS011;13371;52.080;5.624;2024-01-30T10:30:20;9.35;;;5.35;;
25449;SDS011;13371;52.080;5.624;2024-01-30T10:32:46;17.38;;;6.13;;
25449;SDS011;13371;52.080;5.624;2024-01-30T10:35:12;10.77;;;6.13;;
25449;SDS011;13371;52.080;5.624;2024-01-30T10:37:38;12.88;;;6.03;;
25449;SDS011;13371;52.080;5.624;2024-01-30T10:40:04;11.25;;;5.28;;
25449;SDS011;13371;52.080;5.624;2024-01-30T10:42:31;13.20;;;6.28;;
25449;SDS011;13371;52.080;5.624;2024-01-30T10:45:07;14.85;;;7.63;;
25449;SDS011;13371;52.080;5.624;2024-01-30T10:47:35;13.05;;;5.80;;
25449;SDS011;13371;52.080;5.624;2024-01-30T10:50:04;10.60;;;5.45;;
25449;SDS011;13371;52.080;5.624;2024-01-30T10:52:30;9.20;;;5.00;;
25449;SDS011;13371;52.080;5.624;2024-01-30T10:54:57;10.32;;;5.07;;
25449;SDS011;13371;52.080;5.624;2024-01-30T10:57:24;11.68;;;5.47;;
25449;SDS011;13371;52.080;5.624;2024-01-30T10:59:52;12.43;;;4.90;;
25449;SDS011;13371;52.080;5.624;2024-01-30T11:02:39;13.32;;;5.40;;
25449;SDS011;13371;52.080;5.624;2024-01-30T11:05:06;10.10;;;5.63;;
25449;SDS011;13371;52.080;5.624;2024-01-30T11:07:33;10.55;;;4.93;;
25449;SDS011;13371;52.080;5.624;2024-01-30T11:09:59;12.50;;;5.72;;
25449;SDS011;13371;52.080;5.624;2024-01-30T11:12:28;9.32;;;4.82;;
25449;SDS011;13371;52.080;5.624;2024-01-30T11:15:01;10.40;;;4.72;;
25449;SDS011;13371;52.080;5.624;2024-01-30T11:17:43;15.23;;;5.00;;
25449;SDS011;13371;52.080;5.624;2024-01-30T11:20:16;12.43;;;4.57;;
25449;SDS011;13371;52.080;5.624;2024-01-30T11:22:45;9.65;;;4.95;;
25449;SDS011;13371;52.080;5.624;2024-01-30T11:25:15;10.27;;;4.70;;
25449;SDS011;13371;52.080;5.624;2024-01-30T11:27:45;13.65;;;4.97;;
25449;SDS011;13371;52.080;5.624;2024-01-30T11:30:20;10.68;;;4.50;;
25449;SDS011;13371;52.080;5.624;2024-01-30T11:33:09;8.20;;;3.63;;
25449;SDS011;13371;52.080;5.624;2024-01-30T11:35:42;10.40;;;4.68;;
25449;SDS011;13371;52.080;5.624;2024-01-30T11:38:10;8.63;;;4.13;;
25449;SDS011;13371;52.080;5.624;2024-01-30T11:40:37;12.88;;;3.65;;
25449;SDS011;13371;52.080;5.624;2024-01-30T11:43:03;7.53;;;3.55;;
25449;SDS011;13371;52.080;5.624;2024-01-30T11:45:30;7.93;;;3.72;;
25449;SDS011;13371;52.080;5.624;2024-01-30T11:47:57;6.30;;;3.63;;
25449;SDS011;13371;52.080;5.624;2024-01-30T11:50:25;8.40;;;2.90;;
25449;SDS011;13371;52.080;5.624;2024-01-30T11:52:51;9.07;;;3.00;;
25449;SDS011;13371;52.080;5.624;2024-01-30T11:55:16;6.40;;;2.65;;
25449;SDS011;13371;52.080;5.624;2024-01-30T11:57:42;10.00;;;2.83;;
25449;SDS011;13371;52.080;5.624;2024-01-30T12:00:18;8.55;;;2.72;;
25449;SDS011;13371;52.080;5.624;2024-01-30T12:02:49;7.03;;;2.92;;
25449;SDS011;13371;52.080;5.624;2024-01-30T12:05:15;10.68;;;3.17;;
25449;SDS011;13371;52.080;5.624;2024-01-30T12:07:43;6.53;;;2.58;;
25449;SDS011;13371;52.080;5.624;2024-01-30T12:10:10;4.32;;;2.15;;
25449;SDS011;13371;52.080;5.624;2024-01-30T12:12:38;9.48;;;2.90;;
25449;SDS011;13371;52.080;5.624;2024-01-30T12:15:06;5.95;;;2.55;;
25449;SDS011;13371;52.080;5.624;2024-01-30T12:17:33;3.30;;;1.60;;
25449;SDS011;13371;52.080;5.624;2024-01-30T12:20:11;3.30;;;1.50;;
25449;SDS011;13371;52.080;5.624;2024-01-30T12:22:44;5.80;;;1.55;;
25449;SDS011;13371;52.080;5.624;2024-01-30T12:25:14;4.57;;;1.40;;
25449;SDS011;13371;52.080;5.624;2024-01-30T12:27:48;3.22;;;0.90;;
25449;SDS011;13371;52.080;5.624;2024-01-30T12:30:18;3.53;;;0.95;;
25449;SDS011;13371;52.080;5.624;2024-01-30T12:32:45;3.25;;;1.08;;
25449;SDS011;13371;52.080;5.624;2024-01-30T12:35:16;3.15;;;1.23;;
25449;SDS011;13371;52.080;5.624;2024-01-30T12:37:42;4.78;;;1.63;;
25449;SDS011;13371;52.080;5.624;2024-01-30T12:40:10;3.72;;;1.05;;
25449;SDS011;13371;52.080;5.624;2024-01-30T12:42:38;4.75;;;1.83;;
25449;SDS011;13371;52.080;5.624;2024-01-30T12:45:04;3.30;;;2.35;;
25449;SDS011;13371;52.080;5.624;2024-01-30T12:47:30;6.13;;;2.58;;
25449;SDS011;13371;52.080;5.624;2024-01-30T12:49:56;4.70;;;2.88;;
25449;SDS011;13371;52.080;5.624;2024-01-30T12:52:23;7.90;;;2.90;;
25449;SDS011;13371;52.080;5.624;2024-01-30T12:54:49;3.78;;;2.47;;
25449;SDS011;13371;52.080;5.624;2024-01-30T12:57:15;5.60;;;2.85;;
25449;SDS011;13371;52.080;5.624;2024-01-30T12:59:41;10.15;;;3.10;;
25449;SDS011;13371;52.080;5.624;2024-01-30T13:02:10;3.13;;;2.20;;
25449;SDS011;13371;52.080;5.624;2024-01-30T13:04:37;6.80;;;3.22;;
25449;SDS011;13371;52.080;5.624;2024-01-30T13:07:03;7.10;;;2.80;;
25449;SDS011;13371;52.080;5.624;2024-01-30T13:09:29;9.98;;;2.85;;
25449;SDS011;13371;52.080;5.624;2024-01-30T13:11:56;6.00;;;2.40;;
25449;SDS011;13371;52.080;5.624;2024-01-30T13:14:22;5.57;;;2.45;;
25449;SDS011;13371;52.080;5.624;2024-01-30T13:16:47;9.98;;;2.58;;
25449;SDS011;13371;52.080;5.624;2024-01-30T13:19:13;4.43;;;2.33;;
25449;SDS011;13371;52.080;5.624;2024-01-30T13:21:39;10.10;;;3.45;;
25449;SDS011;13371;52.080;5.624;2024-01-30T13:24:04;4.50;;;2.75;;
25449;SDS011;13371;52.080;5.624;2024-01-30T13:26:33;4.65;;;2.83;;
25449;SDS011;13371;52.080;5.624;2024-01-30T13:28:59;5.97;;;2.38;;
25449;SDS011;13371;52.080;5.624;2024-01-30T13:31:25;5.43;;;2.53;;
25449;SDS011;13371;52.080;5.624;2024-01-30T13:33:52;9.30;;;2.70;;
25449;SDS011;13371;52.080;5.624;2024-01-30T13:36:18;4.57;;;2.60;;
25449;SDS011;13371;52.080;5.624;2024-01-30T13:38:43;7.45;;;2.50;;
25449;SDS011;13371;52.080;5.624;2024-01-30T13:41:09;4.00;;;2.58;;
25449;SDS011;13371;52.080;5.624;2024-01-30T13:43:34;8.13;;;2.97;;
25449;SDS011;13371;52.080;5.624;2024-01-30T13:46:00;6.10;;;2.67;;
25449;SDS011;13371;52.080;5.624;2024-01-30T13:48:26;8.02;;;3.00;;
25449;SDS011;13371;52.080;5.624;2024-01-30T13:50:51;7.55;;;3.20;;
25449;SDS011;13371;52.080;5.624;2024-01-30T13:53:18;3.70;;;1.90;;
25449;SDS011;13371;52.080;5.624;2024-01-30T13:55:43;5.07;;;2.08;;
25449;SDS011;13371;52.080;5.624;2024-01-30T13:58:09;3.72;;;2.20;;
25449;SDS011;13371;52.080;5.624;2024-01-30T14:00:35;6.53;;;1.90;;
25449;SDS011;13371;52.080;5.624;2024-01-30T14:03:00;6.00;;;2.13;;
25449;SDS011;13371;52.080;5.624;2024-01-30T14:05:26;5.15;;;1.77;;
25449;SDS011;13371;52.080;5.624;2024-01-30T14:07:55;3.95;;;1.70;;
25449;SDS011;13371;52.080;5.624;2024-01-30T14:10:22;3.85;;;1.13;;
25449;SDS011;13371;52.080;5.624;2024-01-30T14:12:47;2.97;;;1.17;;
25449;SDS011;13371;52.080;5.624;2024-01-30T14:15:13;2.30;;;1.15;;
25449;SDS011;13371;52.080;5.624;2024-01-30T14:17:40;2.80;;;0.98;;
25449;SDS011;13371;52.080;5.624;2024-01-30T14:20:06;2.30;;;0.90;;
25449;SDS011;13371;52.080;5.624;2024-01-30T14:22:35;2.53;;;0.90;;
25449;SDS011;13371;52.080;5.624;2024-01-30T14:25:01;1.00;;;0.75;;
25449;SDS011;13371;52.080;5.624;2024-01-30T14:27:29;0.98;;;0.70;;
25449;SDS011;13371;52.080;5.624;2024-01-30T14:29:55;3.10;;;0.93;;
25449;SDS011;13371;52.080;5.624;2024-01-30T14:32:21;2.05;;;0.93;;
25449;SDS011;13371;52.080;5.624;2024-01-30T14:34:47;2.45;;;0.85;;